Time;durP1;ratioP1;P1;durP2;ratioP2;P2;SDS_P1;SDS_P2;PMS_P1;PMS_P2;Temp;Humidity;BMP_temperature;BMP_pressure;BME280_temperature;BME280_humidity;BME280_pressure;Samples;Min_cycle;Max_cycle;Signal;HPM_P1;HPM_P2
2021/07/11 08:13:10;;;;;;;4.75;3.40;;;18.90;99.90;;;;;;11952023;27;20123;-63
2021/07/11 08:18:57;;;;;;;5.22;3.03;;;19.50;99.90;;;;;;11932837;28;20058;-63
2021/07/11 08:24:43;;;;;;;8.80;3.70;;;20.20;99.90;;;;;;11985355;28;20267;-63
2021/07/11 08:30:32;;;;;;;7.60;4.70;;;20.70;99.90;;;;;;11953559;28;20140;-61
2021/07/11 08:36:19;;;;;;;5.38;3.50;;;21.00;99.90;;;;;;11960696;28;20045;-62
2021/07/11 08:42:08;;;;;;;5.72;3.63;;;21.30;99.90;;;;;;11958092;28;20050;-62
2021/07/11 08:47:56;;;;;;;5.47;3.60;;;21.80;99.90;;;;;;11953752;28;20103;-62
2021/07/11 08:53:46;;;;;;;7.80;4.10;;;22.20;99.90;;;;;;11975512;28;20136;-63
2021/07/11 08:59:34;;;;;;;6.72;3.30;;;22.40;99.90;;;;;;11973223;28;21049;-63
2021/07/11 09:05:24;;;;;;;4.90;2.83;;;22.60;99.90;;;;;;11962067;28;20058;-64
2021/07/11 09:11:16;;;;;;;5.57;3.00;;;22.70;99.90;;;;;;11965416;28;20479;-61
2021/07/11 09:17:06;;;;;;;2.80;2.50;;;22.70;99.90;;;;;;11982429;28;20392;-61
2021/07/11 09:23:03;;;;;;;5.00;3.05;;;22.70;99.90;;;;;;11947710;28;20420;-61
2021/07/11 09:28:51;;;;;;;10.30;3.00;;;22.80;99.90;;;;;;11940002;28;20505;-63
2021/07/11 09:34:41;;;;;;;4.22;2.50;;;22.80;99.90;;;;;;11936438;28;20056;-62
2021/07/11 09:40:30;;;;;;;3.25;2.95;;;22.60;99.90;;;;;;11936991;28;20049;-63
2021/07/11 09:46:18;;;;;;;4.80;2.83;;;22.50;99.90;;;;;;11941220;28;20052;-63
2021/07/11 09:52:05;;;;;;;2.28;2.08;;;22.40;99.90;;;;;;11942674;28;20052;-64
2021/07/11 09:57:54;;;;;;;4.35;2.05;;;22.70;99.90;;;;;;11945641;28;20053;-63
2021/07/11 10:03:41;;;;;;;3.38;2.67;;;23.30;99.90;;;;;;11939862;28;20062;-62
2021/07/11 10:09:28;;;;;;;3.33;2.63;;;23.80;99.90;;;;;;11912700;28;20045;-62
2021/07/11 10:15:18;;;;;;;2.60;2.40;;;23.80;99.90;;;;;;11945176;28;20052;-64
2021/07/11 10:21:06;;;;;;;4.80;2.30;;;23.70;99.90;;;;;;11930331;28;20069;-64
2021/07/11 10:26:53;;;;;;;2.65;2.00;;;23.70;99.90;;;;;;11927911;28;20056;-65
2021/07/11 10:32:41;;;;;;;4.82;2.50;;;23.70;99.90;;;;;;11870978;28;20079;-64
2021/07/11 10:38:31;;;;;;;2.78;2.10;;;23.50;99.90;;;;;;11932425;28;20058;-64
2021/07/11 10:44:22;;;;;;;3.75;2.20;;;23.40;99.90;;;;;;11935956;28;20515;-63
2021/07/11 10:50:25;;;;;;;2.65;2.45;;;23.50;99.90;;;;;;11907699;28;20046;-64
2021/07/11 10:56:20;;;;;;;2.20;2.00;;;23.50;99.90;;;;;;11897529;28;20049;-63
2021/07/11 11:02:19;;;;;;;2.47;2.15;;;23.90;99.90;;;;;;11939676;28;20080;-63
2021/07/11 11:08:12;;;;;;;4.75;2.60;;;24.40;99.90;;;;;;11928700;28;20042;-64
2021/07/11 11:14:05;;;;;;;2.15;1.88;;;24.80;99.90;;;;;;11931639;28;20045;-63
2021/07/11 11:19:52;;;;;;;;;;;25.10;99.20;;;;;;11949131;28;20108;-62
2021/07/11 11:25:51;;;;;;;2.20;1.98;;;25.00;97.60;;;;;;11936837;28;20337;-62
2021/07/11 11:31:38;;;;;;;3.40;2.83;;;24.60;98.10;;;;;;11935922;28;20041;-61
2021/07/11 11:37:25;;;;;;;2.65;1.88;;;24.20;98.90;;;;;;11898046;28;20082;-63
2021/07/11 11:43:22;;;;;;;3.63;2.65;;;24.10;98.60;;;;;;11934542;28;20053;-63
2021/07/11 11:49:11;;;;;;;3.92;2.25;;;24.20;98.80;;;;;;11940645;28;20049;-63
2021/07/11 11:55:04;;;;;;;5.32;3.20;;;24.40;98.50;;;;;;11940616;28;20058;-63
2021/07/11 12:01:01;;;;;;;1.88;1.70;;;24.60;96.80;;;;;;11908907;28;20049;-63
2021/07/11 12:06:54;;;;;;;1.98;1.75;;;24.70;96.10;;;;;;11941500;28;20050;-63
2021/07/11 12:18:46;;;;;;;4.93;2.95;;;24.60;95.80;;;;;;11910021;28;20472;-63
2021/07/11 12:24:33;;;;;;;2.35;2.13;;;24.80;95.50;;;;;;11937193;28;20050;-63
2021/07/11 12:30:22;;;;;;;1.77;1.67;;;24.80;94.20;;;;;;11930565;28;20053;-62
2021/07/11 12:36:12;;;;;;;6.60;4.18;;;25.10;93.60;;;;;;11928539;28;20155;-62
2021/07/11 12:41:59;;;;;;;2.22;1.80;;;25.50;92.70;;;;;;11925526;28;20053;-64
2021/07/11 12:47:50;;;;;;;4.30;1.65;;;25.80;92.10;;;;;;11925711;28;20056;-63
2021/07/11 12:53:39;;;;;;;2.97;1.73;;;25.80;92.60;;;;;;11945955;28;21371;-64
2021/07/11 12:59:28;;;;;;;1.75;1.27;;;26.10;91.20;;;;;;11957865;28;20095;-63
2021/07/11 13:05:16;;;;;;;1.80;1.50;;;26.60;88.70;;;;;;11968086;28;20560;-63
2021/07/11 13:11:04;;;;;;;1.77;1.35;;;26.80;86.80;;;;;;11958844;28;20037;-63
2021/07/11 13:16:52;;;;;;;1.77;1.50;;;26.80;87.60;;;;;;11996843;28;20041;-62
2021/07/11 13:22:38;;;;;;;3.75;1.30;;;27.00;84.10;;;;;;11995026;28;20046;-63
2021/07/11 13:28:28;;;;;;;1.48;1.38;;;27.00;83.90;;;;;;11997704;28;20514;-64
2021/07/11 13:34:15;;;;;;;1.33;1.23;;;26.80;81.50;;;;;;12044232;28;20041;-64
2021/07/11 13:40:03;;;;;;;2.15;1.45;;;26.80;82.40;;;;;;12043197;28;20432;-64
2021/07/11 13:45:51;;;;;;;2.17;1.30;;;26.80;78.90;;;;;;12000638;28;20421;-64
2021/07/11 13:51:38;;;;;;;1.23;1.00;;;27.20;79.50;;;;;;11996556;28;20045;-64
2021/07/11 13:57:25;;;;;;;3.05;1.20;;;27.70;74.10;;;;;;11996411;28;20071;-64
2021/07/11 14:03:14;;;;;;;1.25;1.15;;;27.70;73.50;;;;;;12002916;28;20056;-64
2021/07/11 14:09:01;;;;;;;1.65;1.33;;;27.60;74.60;;;;;;11987684;28;20540;-64
2021/07/11 14:14:48;;;;;;;1.02;1.00;;;27.80;71.10;;;;;;11983890;28;20061;-64
2021/07/11 14:20:36;;;;;;;2.67;1.00;;;27.70;70.20;;;;;;12019586;28;20055;-64
2021/07/11 14:26:23;;;;;;;1.60;1.40;;;27.70;71.10;;;;;;12001156;28;20045;-64
2021/07/11 14:32:10;;;;;;;2.60;1.02;;;27.40;70.60;;;;;;12035499;28;20053;-64
2021/07/11 14:37:59;;;;;;;2.63;1.02;;;27.40;72.80;;;;;;11994106;28;20053;-64
2021/07/11 14:43:45;;;;;;;1.10;1.00;;;27.40;70.90;;;;;;11993814;28;20050;-64
2021/07/11 14:49:33;;;;;;;1.80;1.05;;;26.90;72.10;;;;;;11992297;28;20509;-64
2021/07/11 14:55:21;;;;;;;1.42;1.05;;;26.60;75.50;;;;;;12018388;28;20071;-64
2021/07/11 15:01:08;;;;;;;1.15;1.05;;;26.60;76.50;;;;;;12015575;28;20094;-65
2021/07/11 15:06:55;;;;;;;0.90;0.80;;;26.80;77.20;;;;;;11980131;28;20044;-64
2021/07/11 15:12:43;;;;;;;2.30;1.00;;;27.30;74.20;;;;;;11949262;28;20504;-63
2021/07/11 15:18:30;;;;;;;1.83;0.93;;;27.80;72.10;;;;;;11979115;28;20053;-64
2021/07/11 15:24:17;;;;;;;1.25;1.15;;;28.00;71.80;;;;;;12039261;28;20097;-64
2021/07/11 15:30:06;;;;;;;1.75;1.30;;;28.30;72.10;;;;;;12001458;28;20053;-63
2021/07/11 15:35:54;;;;;;;1.08;1.00;;;28.80;69.80;;;;;;12026333;28;20048;-63
2021/07/11 15:41:41;;;;;;;1.92;0.80;;;29.10;66.00;;;;;;12039004;28;20045;-63
2021/07/11 15:47:29;;;;;;;1.02;0.90;;;29.10;66.10;;;;;;12038170;28;20053;-62
2021/07/11 15:53:19;;;;;;;0.93;0.82;;;28.70;67.30;;;;;;12007492;28;20508;-64
2021/07/11 15:59:06;;;;;;;1.27;1.17;;;28.10;67.80;;;;;;11991183;28;20509;-63
2021/07/11 16:04:54;;;;;;;3.17;1.13;;;27.60;71.00;;;;;;11981534;28;20650;-63
2021/07/11 16:10:42;;;;;;;0.80;0.80;;;27.60;70.30;;;;;;11932400;28;20045;-63
2021/07/11 16:16:29;;;;;;;1.10;0.90;;;27.60;69.70;;;;;;11965597;28;20101;-64
2021/07/11 16:22:17;;;;;;;1.55;0.98;;;27.60;70.90;;;;;;11909861;28;20057;-64
2021/07/11 16:28:04;;;;;;;3.47;1.38;;;28.10;68.90;;;;;;11964812;28;20056;-64
2021/07/11 16:33:51;;;;;;;1.08;0.90;;;28.30;68.90;;;;;;12021305;28;20049;-64
2021/07/11 16:39:39;;;;;;;2.75;1.10;;;28.20;68.60;;;;;;11999627;28;20045;-64
2021/07/11 16:45:26;;;;;;;2.90;1.25;;;27.90;69.30;;;;;;12015226;28;20036;-64
2021/07/11 16:51:14;;;;;;;1.73;1.30;;;27.70;70.50;;;;;;12007724;28;20037;-64
2021/07/11 16:57:03;;;;;;;1.55;1.33;;;27.80;69.80;;;;;;11998470;28;20088;-64
2021/07/11 17:02:50;;;;;;;1.80;1.38;;;27.80;69.30;;;;;;11997356;28;20107;-63
2021/07/11 17:08:37;;;;;;;2.38;1.40;;;27.80;70.50;;;;;;11974319;28;20057;-64
2021/07/11 17:14:25;;;;;;;4.65;1.75;;;27.90;73.20;;;;;;11997745;28;20053;-64
2021/07/11 17:20:13;;;;;;;1.23;1.13;;;28.30;70.30;;;;;;11997164;28;20053;-64
2021/07/11 17:26:00;;;;;;;2.03;1.17;;;28.70;70.50;;;;;;11991724;28;20044;-63
2021/07/11 17:31:48;;;;;;;1.63;1.30;;;29.40;67.40;;;;;;12034250;28;20048;-63
2021/07/11 17:37:36;;;;;;;7.38;4.30;;;29.30;67.10;;;;;;11996004;28;20041;-63
2021/07/11 17:43:23;;;;;;;4.00;3.13;;;29.30;67.10;;;;;;11996067;28;20079;-63
2021/07/11 17:49:11;;;;;;;3.30;2.15;;;29.20;67.60;;;;;;11998060;28;20452;-63
2021/07/11 17:54:58;;;;;;;6.28;1.73;;;28.50;69.40;;;;;;12000556;28;20041;-63
2021/07/11 18:00:45;;;;;;;2.95;1.75;;;27.70;71.40;;;;;;12000473;28;20057;-63
2021/07/11 18:06:34;;;;;;;2.38;1.80;;;27.20;73.40;;;;;;11980180;28;20045;-63
2021/07/11 18:12:20;;;;;;;2.47;1.60;;;26.90;74.90;;;;;;11970385;28;20052;-63
2021/07/11 18:18:07;;;;;;;1.77;1.58;;;26.50;76.00;;;;;;11967979;28;20056;-64
2021/07/11 18:23:56;;;;;;;2.72;1.90;;;26.30;77.00;;;;;;11973375;28;20561;-63
2021/07/11 18:29:43;;;;;;;3.35;1.38;;;26.20;78.80;;;;;;11999191;28;20795;-63
2021/07/11 18:35:32;;;;;;;4.20;1.60;;;26.80;78.80;;;;;;11997300;28;20478;-63
2021/07/11 18:41:20;;;;;;;3.05;1.60;;;26.80;81.00;;;;;;11998389;28;20049;-63
2021/07/11 18:47:10;;;;;;;4.50;1.98;;;26.70;83.50;;;;;;11997459;28;20395;-63
2021/07/11 18:52:57;;;;;;;3.42;1.73;;;26.70;83.90;;;;;;11996177;28;20436;-63
2021/07/11 18:58:45;;;;;;;3.15;2.35;;;26.90;83.30;;;;;;11997638;28;20233;-63
2021/07/11 19:04:32;;;;;;;7.18;4.25;;;26.70;84.40;;;;;;11994088;28;20052;-63
2021/07/11 19:10:20;;;;;;;5.47;1.98;;;26.40;85.50;;;;;;11996525;28;20057;-64
2021/07/11 19:16:08;;;;;;;8.35;2.35;;;26.10;85.70;;;;;;11953650;28;20061;-63
2021/07/11 19:21:55;;;;;;;2.30;1.90;;;25.70;87.10;;;;;;11948599;28;20118;-64
2021/07/11 19:27:43;;;;;;;3.95;2.33;;;25.40;88.40;;;;;;12040374;28;20142;-65
2021/07/11 19:33:40;;;;;;;2.13;1.90;;;25.20;89.70;;;;;;12039138;28;20040;-64
2021/07/11 19:39:27;;;;;;;5.50;2.47;;;25.00;89.90;;;;;;12039150;28;20513;-64
2021/07/11 19:45:15;;;;;;;5.43;2.20;;;24.90;90.00;;;;;;12002270;28;20052;-64
2021/07/11 19:51:04;;;;;;;3.38;2.35;;;24.60;90.30;;;;;;11990785;28;20041;-63
2021/07/11 19:56:51;;;;;;;9.45;7.50;;;24.40;90.30;;;;;;11991598;28;20073;-65
2021/07/11 20:02:38;;;;;;;3.50;2.08;;;24.20;91.30;;;;;;11991496;28;20051;-64
2021/07/11 20:08:26;;;;;;;4.35;2.60;;;23.90;91.20;;;;;;11949735;28;20057;-63
2021/07/11 20:14:13;;;;;;;5.97;3.25;;;23.60;91.80;;;;;;11989678;28;20057;-64
2021/07/11 20:20:00;;;;;;;6.10;2.22;;;23.50;91.90;;;;;;12000954;28;20469;-63
2021/07/11 20:25:48;;;;;;;4.10;2.40;;;23.40;92.30;;;;;;11991200;28;20057;-62
2021/07/11 20:31:36;;;;;;;2.95;2.20;;;23.20;92.40;;;;;;12038435;28;20049;-62
2021/07/11 20:37:23;;;;;;;3.47;2.47;;;23.20;92.70;;;;;;12037471;28;20059;-62
2021/07/11 20:43:11;;;;;;;2.95;2.10;;;23.10;93.20;;;;;;11992786;28;20081;-64
2021/07/11 20:48:59;;;;;;;3.90;2.28;;;23.10;93.30;;;;;;12007278;28;20044;-62
2021/07/11 20:54:46;;;;;;;6.85;2.38;;;23.00;93.20;;;;;;12017028;28;20527;-63
2021/07/11 21:00:35;;;;;;;4.53;2.30;;;22.90;93.40;;;;;;12022631;28;20037;-63
2021/07/11 21:06:22;;;;;;;3.75;2.15;;;22.90;93.60;;;;;;11978999;28;20041;-62
2021/07/11 21:12:09;;;;;;;9.52;3.47;;;22.80;93.90;;;;;;11953288;28;20034;-62
2021/07/11 21:17:57;;;;;;;5.60;3.10;;;22.80;94.30;;;;;;11950168;28;20045;-62
2021/07/11 21:23:44;;;;;;;5.22;3.05;;;22.70;94.50;;;;;;12010919;28;20040;-62
2021/07/11 21:29:31;;;;;;;24.05;14.52;;;22.70;95.00;;;;;;12000662;28;20083;-63
2021/07/11 21:35:20;;;;;;;4.32;2.40;;;22.70;95.10;;;;;;12003090;28;20061;-63
2021/07/11 21:41:07;;;;;;;2.22;2.10;;;22.70;95.20;;;;;;12022572;28;20043;-64
2021/07/11 21:46:54;;;;;;;5.78;2.88;;;22.70;95.00;;;;;;12044213;28;20057;-63
2021/07/11 21:52:43;;;;;;;3.85;2.22;;;22.70;95.10;;;;;;11998347;28;20047;-63
2021/07/11 21:58:29;;;;;;;9.65;2.50;;;22.60;95.20;;;;;;11996162;28;20037;-63
2021/07/11 22:04:17;;;;;;;6.78;2.45;;;22.50;95.60;;;;;;11987787;28;20049;-62
2021/07/11 22:10:06;;;;;;;4.13;2.63;;;22.40;95.80;;;;;;11990477;28;20045;-63
2021/07/11 22:15:53;;;;;;;4.03;2.72;;;22.40;96.10;;;;;;11995557;28;20077;-63
2021/07/11 22:21:40;;;;;;;3.92;2.65;;;22.40;96.30;;;;;;11975679;28;20041;-63
2021/07/11 22:27:29;;;;;;;8.75;2.90;;;22.40;96.30;;;;;;11995276;28;20041;-63
2021/07/11 22:33:15;;;;;;;3.60;3.10;;;22.40;96.70;;;;;;11994283;28;20525;-63
2021/07/11 22:39:03;;;;;;;5.35;2.70;;;22.40;97.00;;;;;;11993278;28;20038;-63
2021/07/11 22:44:51;;;;;;;4.47;3.55;;;22.30;97.40;;;;;;11993725;28;21294;-64
2021/07/11 22:50:38;;;;;;;7.20;3.58;;;22.30;97.50;;;;;;11993888;28;20056;-63
2021/07/11 22:56:28;;;;;;;6.85;3.10;;;22.10;97.90;;;;;;11993787;28;20041;-63
2021/07/11 23:02:16;;;;;;;5.90;2.90;;;22.00;98.30;;;;;;11996936;28;20072;-63
2021/07/11 23:08:04;;;;;;;5.03;3.03;;;21.90;98.40;;;;;;11988766;28;20048;-64
